Home > Products > Valid Products > TAF

000
FTUS42 KJAX 270500
TAFSSI
TAF
KSSI 270521Z 2706/2806 26005KT P6SM SKC
     FM270900 24006KT P6SM FEW045 WS010/26035KT
     FM271400 29014G22KT P6SM FEW030
     FM272300 29006KT P6SM SKC=



000
FTUS42 KJAX 270500
TAFGNV
TAF
KGNV 270521Z 2706/2806 28003KT P6SM SKC
     FM271000 27004KT P6SM SKC WS010/26030KT
     FM271500 31010G18KT P6SM FEW030
     FM272300 29006KT P6SM SKC=



000
FTUS42 KJAX 270500
TAFJAX
TAF
KJAX 270521Z 2706/2806 26004KT P6SM SKC
     FM271000 25005KT P6SM SKC WS010/26035KT
     FM271400 30014G22KT P6SM FEW030
     FM272300 31005KT P6SM SKC=



000
FTUS42 KJAX 270500
TAFCRG
TAF
KCRG 270521Z 2706/2806 28004KT P6SM SKC
     FM271000 27005KT P6SM SKC WS010/26035KT
     FM271500 30014G22KT P6SM FEW030
     FM272300 32006KT P6SM SKC=



000
FTUS42 KJAX 262300
TAFGNV
TAF
KGNV 262339Z 2700/2724 25002KT P6SM SKC
     FM271000 25004KT P6SM SKC WS010/26030KT
     FM271400 31010G18KT P6SM FEW030=



000
FTUS42 KJAX 262300
TAFSSI
TAF
KSSI 262339Z 2700/2724 25004KT P6SM SKC
     FM270900 24006KT P6SM FEW045 WS010/26035KT
     FM271400 29013G23KT P6SM FEW030=



000
FTUS42 KJAX 262300
TAFJAX
TAF
KJAX 262339Z 2700/2724 26004KT P6SM SKC
     FM271000 25005KT P6SM SKC WS010/26035KT
     FM271400 30013G23KT P6SM FEW030=



000
FTUS42 KJAX 262300
TAFCRG
TAF
KCRG 262339Z 2700/2724 28004KT P6SM SKC
     FM271000 26005KT P6SM SKC WS010/26035KT
     FM271400 30013G23KT P6SM FEW030=



000
FTUS42 KJAX 261700
TAFCRG
TAF
KCRG 261729Z 2618/2718 29012G18KT P6SM FEW025
     FM262200 27006KT P6SM SKC
     FM271400 30013G23KT P6SM FEW030=



000
FTUS42 KJAX 261700
TAFJAX
TAF
KJAX 261729Z 2618/2718 29012G18KT P6SM FEW025
     FM262200 26005KT P6SM SKC
     FM271400 30013G23KT P6SM FEW030=



000
FTUS42 KJAX 261700
TAFGNV
TAF
KGNV 261729Z 2618/2718 30011KT P6SM FEW025
     FM262300 27003KT P6SM SKC
     FM271400 31010G18KT P6SM FEW030=



000
FTUS42 KJAX 261700
TAFSSI
TAF
KSSI 261729Z 2618/2718 29012G18KT P6SM FEW025
     FM262200 25007KT P6SM SKC
     FM271400 29013G23KT P6SM FEW030=



000
FTUS42 KJAX 261600 AAC
TAFJAX
TAF AMD
KJAX 261637Z 2617/2712 29010G18KT P6SM SCT025
     FM262300 28007KT P6SM SKC
     FM270500 26003KT P6SM SKC=



000
FTUS42 KJAX 261500 AAC
TAFSSI
TAF AMD
KSSI 261512Z 2615/2712 29010G18KT P6SM BKN015 OVC050
      TEMPO 2615/2617 BKN009
     FM261800 29011G18KT P6SM SCT025 SCT250
     FM262300 27007KT P6SM SKC=



000
FTUS42 KJAX 261500 AAB
TAFGNV
TAF AMD
KGNV 261510Z 2615/2712 32011KT P6SM BKN015 OVC040
     FM261800 30011KT P6SM SCT025 SCT250
     FM262300 VRB03KT P6SM SKC=



000
FTUS42 KJAX 261500 AAB
TAFGNV
TAF AMD
KGNV 261510Z 2615/2712 32011KT P6SM BKN015 OVC040
     FM261800 30011KT P6SM SCT025 SCT250
     FM262300 VRB03KT P6SM SKC=



000
FTUS42 KJAX 261500 AAB
TAFCRG
TAF AMD
KCRG 261505Z 2615/2712 31012KT P6SM BKN012 OVC050
      TEMPO 2615/2617 BKN009
     FM261800 32012G20KT P6SM VCSH SCT025
     FM261900 30010G18KT P6SM SCT025 SCT250
     FM262300 28007KT P6SM SKC=



000
FTUS42 KJAX 261500 AAB
TAFJAX
TAF AMD
KJAX 261503Z 2615/2712 30010KT P6SM BKN015 OVC050
      TEMPO 2615/2617 BKN008
     FM261700 29010G18KT P6SM SCT025 SCT250
     FM262300 28007KT P6SM SKC
     FM270500 26003KT P6SM SKC=



000
FTUS42 KJAX 261300 AAB
TAFSSI
TAF AMD
KSSI 261323Z 2613/2712 31012KT P6SM SCT015 OVC070
      TEMPO 2613/2615 6SM -RA BR BKN015
     FM261500 30012G22KT P6SM VCSH SCT007 BKN015
     FM261900 29011KT P6SM SCT025 SCT250
     FM262300 27007KT P6SM SKC=



000
FTUS42 KJAX 261300 AAA
TAFCRG
TAF AMD
KCRG 261314Z 2613/2712 31012KT P6SM SCT012 OVC070
      TEMPO 2613/2615 6SM -RA BR BKN012
     FM261500 32012G20KT P6SM VCSH SCT012 BKN020
     FM261900 30010G18KT P6SM SCT025 SCT250
     FM262300 28007KT P6SM SKC=



000
FTUS42 KJAX 261300 AAA
TAFJAX
TAF AMD
KJAX 261307Z 2613/2712 30010KT P6SM SCT012 OVC070
      TEMPO 2613/2615 6SM -RA BR BKN012
     FM261700 29010G18KT P6SM SCT025 SCT250
     FM262300 28007KT P6SM SKC
     FM270500 26003KT P6SM SKC=



000
FTUS42 KJAX 261100 AAA
TAFSSI
TAF AMD
KSSI 261151Z 2612/2712 31012KT 5SM -RA BR SCT010 OVC020
      TEMPO 2612/2614 OVC010
     FM261400 30012G22KT P6SM VCSH SCT007 BKN015
     FM261900 29011KT P6SM SCT025 SCT250
     FM262300 27007KT P6SM SKC=



000
FTUS42 KJAX 261100 AAA
TAFGNV
TAF AMD
KGNV 261150Z 2612/2712 34012KT 6SM -RA BR SCT008 OVC025
      TEMPO 2612/2614 3SM -RA BR OVC006
     FM261400 31010G18KT P6SM VCSH SCT015 BKN030
     FM261800 29011KT P6SM SCT025 SCT250
     FM262300 VRB03KT P6SM SKC=



000
FTUS42 KJAX 261100 AAA
TAFJAX
TAF AMD
KJAX 261150Z 2612/2712 31012KT P6SM -RA SCT008 OVC015
      TEMPO 2612/2615 4SM -RA BR OVC008
     FM261900 29010G18KT P6SM SCT025 SCT250
     FM262300 28007KT P6SM SKC
     FM270500 26003KT P6SM SKC=



000
FTUS42 KJAX 261100
TAFJAX
TAF
KJAX 261121Z 2612/2712 31012G20KT P6SM VCSH SCT008 OVC015
      TEMPO 2612/2615 4SM -RA BR OVC008
     FM261900 29010G18KT P6SM SCT025 SCT250
     FM262300 28007KT P6SM SKC
     FM270500 26003KT P6SM SKC=



000
FTUS42 KJAX 261100
TAFGNV
TAF
KGNV 261121Z 2612/2712 34012G20KT 6SM -RA BR SCT008 OVC025
      TEMPO 2612/2614 3SM -RA BR OVC006
     FM261400 31010G18KT P6SM VCSH SCT015 BKN030
     FM261800 29011KT P6SM SCT025 SCT250
     FM262300 VRB03KT P6SM SKC=



000
FTUS42 KJAX 261100
TAFCRG
TAF
KCRG 261121Z 2612/2712 32014G22KT 6SM -RA BR SCT007 OVC012
      TEMPO 2612/2614 3SM -RA BR OVC007
     FM261500 32012G20KT P6SM VCSH SCT012 BKN020
     FM261900 30010G18KT P6SM SCT025 SCT250
     FM262300 28007KT P6SM SKC=



000
FTUS42 KJAX 261100
TAFSSI
TAF
KSSI 261121Z 2612/2712 31012G22KT 5SM -RA BR SCT007 OVC012
      TEMPO 2612/2614 OVC007
     FM261400 30012G22KT P6SM VCSH SCT007 BKN015
     FM261900 29011KT P6SM SCT025 SCT250
     FM262300 27007KT P6SM SKC=



000
FTUS42 KJAX 261000 AAB
TAFSSI
TAF AMD
KSSI 261011Z 2610/2706 31012G22KT 4SM -RA BR SCT007 OVC012
      TEMPO 2610/2613 OVC007
     FM261400 30012G22KT P6SM VCSH SCT007 BKN015
     FM261900 29011KT P6SM SCT025 SCT250
     FM262300 28007KT P6SM SKC=



000
FTUS42 KJAX 261000 AAC
TAFGNV
TAF AMD
KGNV 261010Z 2610/2706 32012G22KT 6SM -RA BR SCT006 OVC012
      TEMPO 2610/2613 3SM -RA BR OVC006
     FM261500 31012G18KT P6SM VCSH SCT010 BKN020
     FM261900 29011KT P6SM SCT025 SCT250
     FM262300 30005KT P6SM SKC=



000
FTUS42 KJAX 261000 AAC
TAFGNV
TAF AMD
KGNV 261010Z 2610/2706 32012G22KT 6SM -RA BR SCT006 OVC012
      TEMPO 2610/2613 3SM -RA BR OVC006
     FM261500 31012G18KT P6SM VCSH SCT010 BKN020
     FM261900 29011KT P6SM SCT025 SCT250
     FM262300 30005KT P6SM SKC=



000
FTUS42 KJAX 261000 AAC
TAFCRG
TAF AMD
KCRG 261008Z 2610/2706 31010G18KT 6SM -RA BR OVC008
      TEMPO 2610/2613 3SM -RA BR
     FM261400 32017G27KT P6SM VCSH SCT007 BKN015
     FM261900 30014G22KT P6SM SCT025 SCT250
     FM262300 29007KT P6SM SKC=



000
FTUS42 KJAX 261000 AAC
TAFCRG
TAF AMD
KCRG 261008Z 2610/2706 31010G18KT 6SM -RA BR OVC008
      TEMPO 2610/2613 3SM -RA BR
     FM261400 32017G27KT P6SM VCSH SCT007 BKN015
     FM261900 30014G22KT P6SM SCT025 SCT250
     FM262300 29007KT P6SM SKC=



000
FTUS42 KJAX 261000 AAC
TAFJAX
TAF AMD
KJAX 261007Z 2610/2706 31012G20KT 5SM -RA BR OVC008
     FM261400 32015G25KT P6SM VCSH SCT007 BKN015
     FM261900 29012G20KT P6SM SCT025 SCT250
     FM262300 28007KT P6SM SKC=



000
FTUS42 KJAX 261000 AAC
TAFJAX
TAF AMD
KJAX 261007Z 2610/2706 31012G20KT 5SM -RA BR OVC008
     FM261400 32015G25KT P6SM VCSH SCT007 BKN015
     FM261900 29012G20KT P6SM SCT025 SCT250
     FM262300 28007KT P6SM SKC=



000
FTUS42 KJAX 260900 AAB
TAFGNV
TAF AMD
KGNV 260910Z 2609/2706 32012G22KT 5SM -RA BR SCT005 OVC012
      TEMPO 2609/2612 2SM -RA BR OVC005
     FM261500 31012G18KT P6SM VCSH SCT010 BKN020
     FM261900 29011KT P6SM SCT025 SCT250
     FM262300 30005KT P6SM SKC=



000
FTUS42 KJAX 260800 AAA
TAFSSI
TAF AMD
KSSI 260837Z 2609/2706 31012G22KT 4SM -RA BR SCT005 OVC010
      TEMPO 2609/2612 2SM -RA BR OVC005
     FM261400 30012G22KT P6SM VCSH SCT007 BKN015
     FM261900 29011KT P6SM SCT025 SCT250
     FM262300 28007KT P6SM SKC=



000
FTUS42 KJAX 260800 AAA
TAFGNV
TAF AMD
KGNV 260836Z 2609/2706 34012G22KT 5SM -RA BR SCT005 OVC012
      TEMPO 2609/2612 2SM -RA BR OVC005
     FM261500 31012G18KT P6SM VCSH SCT010 BKN020
     FM261900 29011KT P6SM SCT025 SCT250
     FM262300 30005KT P6SM SKC=



000
FTUS42 KJAX 260800 AAB
TAFCRG
TAF AMD
KCRG 260835Z 2609/2706 32010G18KT 4SM -RA BR OVC008
      TEMPO 2609/2612 2SM -RA BR OVC004
     FM261400 32017G27KT P6SM VCSH SCT007 BKN015
     FM261900 30014G22KT P6SM SCT025 SCT250
     FM262300 29007KT P6SM SKC=



000
FTUS42 KJAX 260800 AAB
TAFJAX
TAF AMD
KJAX 260834Z 2609/2706 32012G20KT 6SM -RA BR SCT008 OVC015
      TEMPO 2609/2612 3SM -RA BR OVC006
     FM261400 32015G25KT P6SM VCSH SCT007 BKN015
     FM261900 29012G20KT P6SM SCT025 SCT250
     FM262300 28007KT P6SM SKC=



000
FTUS42 KJAX 260700 AAA
TAFCRG
TAF AMD
KCRG 260740Z 2608/2706 32010G18KT 4SM -RA BR SCT006 OVC012
      TEMPO 2608/2612 2SM -RA BR OVC006
     FM261400 32017G27KT P6SM VCSH SCT007 BKN015
     FM261900 30014G22KT P6SM SCT025 SCT250
     FM262300 29007KT P6SM SKC=



000
FTUS42 KJAX 260700 AAA
TAFJAX
TAF AMD
KJAX 260739Z 2608/2706 32010G18KT 4SM -RA BR SCT006 OVC012
      TEMPO 2608/2612 2SM -RA BR OVC006
     FM261400 32015G25KT P6SM VCSH SCT007 BKN015
     FM261900 29012G20KT P6SM SCT025 SCT250
     FM262300 28007KT P6SM SKC=



000
FTUS42 KJAX 260500
TAFGNV
TAF
KGNV 260525Z 2606/2706 34010KT 5SM -RA BR SCT005 OVC010
      TEMPO 2606/2609 2SM -RA BR OVC005
     FM261500 31012G18KT P6SM VCSH SCT010 BKN020
     FM261900 29011KT P6SM SCT025 SCT250
     FM262300 30005KT P6SM SKC=



000
FTUS42 KJAX 260500
TAFCRG
TAF
KCRG 260525Z 2606/2706 34008KT 3SM -RA BR OVC004
     FM261000 32012G20KT 4SM -RA BR OVC007
     FM261400 32017G27KT P6SM VCSH SCT007 BKN015
     FM261900 30014G22KT P6SM SCT025 SCT250
     FM262300 29007KT P6SM SKC=



000
FTUS42 KJAX 260500
TAFSSI
TAF
KSSI 260525Z 2606/2706 34009KT 4SM -RA BR OVC003
      TEMPO 2606/2609 2SM -RA BR
     FM261400 30012G22KT P6SM VCSH SCT007 BKN015
     FM261900 29011KT P6SM SCT025 SCT250
     FM262300 28007KT P6SM SKC=



000
FTUS42 KJAX 260500
TAFJAX
TAF
KJAX 260525Z 2606/2706 34007KT 3SM -RA BR OVC004
     FM260900 32012KT 4SM -RA BR OVC007
     FM261400 32015G25KT P6SM VCSH SCT007 BKN015
     FM261900 29012G20KT P6SM SCT025 SCT250
     FM262300 28007KT P6SM SKC=



000
FTUS42 KJAX 260400 AAA
TAFGNV
TAF AMD
KGNV 260440Z 2605/2624 34007KT 5SM -RA BR SCT003 OVC010
      TEMPO 2605/2609 2SM -RA BR OVC003
     FM261100 30012KT 4SM BR VCSH BKN002
     FM261500 32012G25KT P6SM BKN010
     FM262100 29012G20KT P6SM FEW010=



000
FTUS42 KJAX 260400 AAA
TAFGNV
TAF AMD
KGNV 260440Z 2605/2624 34007KT 5SM -RA BR SCT003 OVC010
      TEMPO 2605/2609 2SM -RA BR OVC003
     FM261100 30012KT 4SM BR VCSH BKN002
     FM261500 32012G25KT P6SM BKN010
     FM262100 29012G20KT P6SM FEW010=



000
FTUS42 KJAX 260400 AAA
TAFCRG
TAF AMD
KCRG 260437Z 2605/2624 02012KT 6SM -RA BR OVC003
      TEMPO 2605/2609 3SM -RA BR
     FM260900 31012KT 4SM BR VCSH BKN003
     FM261500 32015G25KT P6SM BKN010
     FM261900 29012G20KT P6SM FEW010=



000
FTUS42 KJAX 260400 AAD
TAFSSI
TAF AMD
KSSI 260436Z 2605/2624 36012KT 6SM -RA BR OVC004
     FM260900 28010KT 4SM BR VCSH BKN003
     FM261500 28012G25KT P6SM BKN010
     FM261900 29012G20KT P6SM FEW010=



000
FTUS42 KJAX 260000 AAC
TAFSSI
TAF AMD
KSSI 260049Z 2601/2624 04012KT 6SM RA BR BKN004
     FM260300 01007KT 5SM BR VCSH BKN008
     FM260900 28010KT 4SM BR VCSH BKN003
     FM261500 28012G25KT P6SM BKN010
     FM261900 29012G20KT P6SM FEW010=



000
FTUS42 KJAX 260000 AAB
TAFSSI
TAF AMD
KSSI 260027Z 2600/2624 04012KT 6SM RA BR BKN005
     FM260300 01007KT 5SM BR VCSH BKN010
     FM260900 28010KT 4SM BR VCSH BKN003
     FM261500 28012G25KT P6SM BKN010
     FM261900 29012G20KT P6SM FEW010=



000
FTUS42 KJAX 260000 AAA
TAFSSI
TAF AMD
KSSI 260014Z 2600/2624 04012KT 6SM RA BR FEW007 BKN050
     FM260300 01007KT 5SM BR VCSH BKN010
     FM260900 28010KT 4SM BR VCSH BKN003
     FM261500 28012G25KT P6SM BKN010
     FM261900 29012G20KT P6SM FEW010=



000
FTUS42 KJAX 252300
TAFGNV
TAF
KGNV 252332Z 2600/2624 04007KT 4SM RA BR OVC005
     FM261100 30012KT 4SM BR VCSH BKN002
     FM261500 32012G25KT P6SM BKN010
     FM262100 29012G20KT P6SM FEW010=



000
FTUS42 KJAX 252300
TAFSSI
TAF
KSSI 252332Z 2600/2624 35004KT 3SM RA BR BKN004
     FM260900 28010KT 4SM BR VCSH BKN003
     FM261500 28012G25KT P6SM BKN010
     FM261900 29012G20KT P6SM FEW010=



000
FTUS42 KJAX 252300
TAFCRG
TAF
KCRG 252332Z 2600/2624 03010KT 4SM RA BR BKN004
     FM260900 31012KT 4SM BR VCSH BKN003
     FM261500 32015G25KT P6SM BKN010
     FM261900 29012G20KT P6SM FEW010=



000
FTUS42 KJAX 252300
TAFJAX
TAF
KJAX 252332Z 2600/2624 36009KT 2SM RA OVC005
     FM260900 30010KT 4SM BR VCSH BKN003
     FM261500 32015G25KT P6SM BKN010
     FM261900 29012G20KT P6SM FEW010=



000
FTUS42 KJAX 252100 AAC
TAFJAX
TAF AMD
KJAX 252128Z 2521/2618 05008KT 1SM +TSRA BKN004CB
     FM252300 03007KT 1SM +RA BR VCTS OVC004CB
     FM260300 36010KT 2SM RA BR SCT002 OVC005
     FM260900 31016G28KT 5SM SHRA SCT005 OVC010
     FM261300 32012KT 6SM -SHRA SCT010 BKN050=



000
FTUS42 KJAX 252100 AAC
TAFCRG
TAF AMD
KCRG 252122Z 2521/2618 31007KT 2SM +TSRA BKN006CB
     FM252300 03007KT 1SM +RA BR VCTS OVC004CB
     FM260300 36010KT 2SM RA BR SCT002 OVC005
     FM260900 31016G28KT 5SM SHRA SCT005 OVC010
     FM261300 32012KT 6SM -SHRA SCT010 BKN050=



000
FTUS42 KJAX 252100 AAB
TAFJAX
TAF AMD
KJAX 252120Z 2521/2618 05008KT 1SM +TSRA BKN010CB
     FM252300 03007KT 1SM +RA BR VCTS OVC004CB
     FM260300 36010KT 2SM RA BR SCT002 OVC005
     FM260900 31016G28KT 5SM SHRA SCT005 OVC010
     FM261300 32012KT 6SM -SHRA SCT010 BKN050=



000
FTUS42 KJAX 252000 AAB
TAFSSI
TAF AMD
KSSI 252042Z 2521/2618 01006KT 1SM RA OVC035
     FM252200 VRB10KT 1SM TSRA OVC010CB
     FM260500 33015G28KT 5SM -RA OVC010
     FM261200 30012G20KT 6SM -SHRA SCT010 BKN050=



000
FTUS42 KJAX 252000 AAB
TAFGNV
TAF AMD
KGNV 252012Z 2520/2618 VRB10KT 3SM TSRA OVC007CB
     FM252100 VRB06KT 1SM TSRA OVC004CB
     FM260400 29012G18KT 2SM RA SCT004 OVC008
     FM260800 32015G28KT 5SM SHRA SCT005 OVC010
     FM261300 33012KT 6SM -SHRA SCT010 BKN050=



000
FTUS42 KJAX 251900 AAA
TAFGNV
TAF AMD
KGNV 251937Z 2520/2618 VRB10KT 3SM TSRA OVC010CB
     FM252100 VRB06KT 1SM TSRA OVC004CB
     FM260400 29012G18KT 2SM RA SCT004 OVC008
     FM260800 32015G28KT 5SM SHRA SCT005 OVC010
     FM261300 33012KT 6SM -SHRA SCT010 BKN050=



000
FTUS42 KJAX 251900 AAB
TAFCRG
TAF AMD
KCRG 251931Z 2520/2618 07012KT 4SM RA BKN020
     FM252100 03006KT 2SM RA BR SCT004 OVC008
     FM252300 03007KT 1SM +RA BR VCTS OVC004CB
     FM260300 36010KT 2SM RA BR SCT002 OVC005
     FM260900 31016G28KT 5SM SHRA SCT005 OVC010
     FM261300 32012KT 6SM -SHRA SCT010 BKN050=



000
FTUS42 KJAX 251900 AAA
TAFJAX
TAF AMD
KJAX 251930Z 2520/2618 05008KT 4SM RA BKN020
     FM252100 03006KT 2SM RA BR SCT004 OVC008
     FM252300 03007KT 1SM +RA BR VCTS OVC004CB
     FM260300 36010KT 2SM RA BR SCT002 OVC005
     FM260900 31016G28KT 5SM SHRA SCT005 OVC010
     FM261300 32012KT 6SM -SHRA SCT010 BKN050=



000
FTUS42 KJAX 251800 AAA
TAFSSI
TAF AMD
KSSI 251857Z 2519/2618 06008KT P6SM FEW060 BKN100
     FM252300 03009KT 5SM -RA BR SCT004 OVC015
     FM260000 01008KT 1SM +RA BR OVC004
     FM260500 33015G28KT 5SM -RA OVC010
     FM261200 30012G20KT 6SM -SHRA SCT010 BKN050=



000
FTUS42 KJAX 251800 AAA
TAFJAX
TAF AMD
KJAX 251826Z 2518/2618 04007KT P6SM VCSH SCT024 BKN070
     FM252100 03006KT 2SM RA BR SCT004 OVC008
     FM252300 03007KT 1SM +RA BR VCTS OVC004CB
     FM260300 36010KT 2SM RA BR SCT002 OVC005
     FM260900 31016G28KT 5SM SHRA SCT005 OVC010
     FM261300 32012KT 6SM -SHRA SCT010 BKN050=



000
FTUS42 KJAX 251800 AAA
TAFCRG
TAF AMD
KCRG 251817Z 2518/2618 07012KT P6SM VCSH OVC020
     FM252100 03006KT 2SM RA BR SCT004 OVC008
     FM252300 03007KT 1SM +RA BR VCTS OVC004CB
     FM260300 36010KT 2SM RA BR SCT002 OVC005
     FM260900 31016G28KT 5SM SHRA SCT005 OVC010
     FM261300 32012KT 6SM -SHRA SCT010 BKN050=



000
FTUS42 KJAX 251700
TAFSSI
TAF
KSSI 251740Z 2518/2618 03008KT 3SM RA BR SCT008 OVC025
     FM252100 03009KT 5SM -RA BR SCT004 OVC015
     FM260000 01008KT 1SM +RA BR OVC004
     FM260500 33015G28KT 5SM -RA OVC010
     FM261200 30012G20KT 6SM -SHRA SCT010 BKN050=



000
FTUS42 KJAX 251700
TAFGNV
TAF
KGNV 251740Z 2518/2618 03006KT P6SM SCT005 OVC015
     FM251900 04007KT 3SM RA BR SCT004 OVC008
     FM252100 VRB06KT 1SM +RA BR VCTS OVC004CB
      TEMPO 2521/2524 +TSRA
     FM260400 29012G18KT 2SM RA SCT004 OVC008
     FM260800 32015G28KT 5SM SHRA SCT005 OVC010
     FM261300 33012KT 6SM -SHRA SCT010 BKN050=



000
FTUS42 KJAX 251700
TAFCRG
TAF
KCRG 251740Z 2518/2618 04007KT 5SM -RA BR SCT008 BKN015
     FM252100 03006KT 2SM RA BR SCT004 OVC008
     FM252300 03007KT 1SM +RA BR VCTS OVC004CB
     FM260300 36010KT 2SM RA BR SCT002 OVC005
     FM260900 31016G28KT 5SM SHRA SCT005 OVC010
     FM261300 32012KT 6SM -SHRA SCT010 BKN050=



000
FTUS42 KJAX 251700
TAFJAX
TAF
KJAX 251740Z 2518/2618 04007KT 5SM -RA BR SCT008 BKN015
     FM252100 03006KT 2SM RA BR SCT004 OVC008
     FM252300 03007KT 1SM +RA BR VCTS OVC004CB
     FM260300 36010KT 2SM RA BR SCT002 OVC005
     FM260900 31016G28KT 5SM SHRA SCT005 OVC010
     FM261300 32012KT 6SM -SHRA SCT010 BKN050=



000
FTUS42 KJAX 251600 AAA
TAFGNV
TAF AMD
KGNV 251634Z 2517/2612 03006KT P6SM SCT005 OVC015
     FM251900 04007KT 3SM RA BR SCT004 OVC008
     FM252100 VRB06KT 1SM +RA BR VCTS OVC004CB
     FM260400 29012G18KT 2SM RA SCT004 OVC008
     FM260800 31015G28KT 5SM SHRA SCT005 OVC010=



000
FTUS42 KJAX 251600 AAA
TAFGNV
TAF AMD
KGNV 251634Z 2517/2612 03006KT P6SM SCT005 OVC015
     FM251900 04007KT 3SM RA BR SCT004 OVC008
     FM252100 VRB06KT 1SM +RA BR VCTS OVC004CB
     FM260400 29012G18KT 2SM RA SCT004 OVC008
     FM260800 31015G28KT 5SM SHRA SCT005 OVC010=



000
FTUS42 KJAX 251500 AAA
TAFCRG
TAF AMD
KCRG 251522Z 2515/2612 36006KT P6SM VCSH SCT010 OVC018
     FM251800 03006KT 3SM RA BR SCT004 OVC008
     FM252200 03007KT 1SM +RA BR OVC004
     FM260300 VRB05KT 2SM RA BR SCT004 OVC008
     FM260900 31016G28KT 6SM -RA SCT005 OVC010=



000
FTUS42 KJAX 251300 AAA
TAFSSI
TAF AMD
KSSI 251343Z 2514/2612 36007KT P6SM -SHRA SCT010 OVC035
     FM251800 03007KT 3SM RA BR SCT005 OVC012
     FM252100 02007KT 2SM RA BR SCT004 OVC007
     FM260000 01008KT 1SM +RA BR OVC004
     FM260500 31015G28KT 6SM -RA OVC010=



000
FTUS42 KJAX 251300 AAA
TAFJAX
TAF AMD
KJAX 251321Z 2513/2612 36006KT P6SM VCSH SCT010 OVC018
     FM251800 03006KT 3SM RA BR SCT004 OVC008
     FM252200 03007KT 1SM +RA BR OVC004
     FM260300 VRB05KT 2SM RA BR SCT004 OVC008
     FM260900 31016G28KT 6SM -RA SCT005 OVC010=



000
FTUS42 KJAX 251100 AAA
TAFJAX
TAF AMD
KJAX 251137Z 2512/2612 32005KT P6SM VCSH SCT005 OVC012
      TEMPO 2512/2515 3SM BR OVC003
     FM251500 35005KT 4SM -RA BR SCT005 OVC010
     FM252000 03007KT 3SM RA BR OVC006
     FM260500 34012G20KT 4SM -RA BR SCT005 OVC010
     FM261000 31015G25KT 6SM -RA BKN020=



000
FTUS42 KJAX 251100
TAFGNV
TAF
KGNV 251121Z 2512/2612 22005KT P6SM SCT007 BKN035
      TEMPO 2512/2514 BKN007
     FM251500 35005KT 4SM -RA BR SCT005 OVC015
     FM251900 04007KT 3SM RA BR OVC007
     FM260500 30012G20KT 4SM -RA BR OVC005
     FM261000 34015G25KT 6SM -RA OVC010=



000
FTUS42 KJAX 251100
TAFJAX
TAF
KJAX 251121Z 2512/2612 32005KT P6SM VCSH SCT006 OVC012
      TEMPO 2512/2515 5SM BR OVC006
     FM251500 35005KT 4SM -RA BR SCT005 OVC010
     FM252000 03007KT 3SM RA BR OVC006
     FM260500 34012G20KT 4SM -RA BR SCT005 OVC010
     FM261000 31015G25KT 6SM -RA BKN020=



000
FTUS42 KJAX 251100
TAFCRG
TAF
KCRG 251121Z 2512/2612 VRB04KT P6SM OVC005
     FM251600 35005KT 4SM -RA BR SCT005 OVC010
     FM252000 03007KT 3SM RA BR OVC006
     FM260500 34012G20KT 4SM -RA BR SCT005 OVC010
     FM261000 31017G27KT 6SM -RA BKN020=



000
FTUS42 KJAX 251100
TAFSSI
TAF
KSSI 251121Z 2512/2612 33005KT P6SM -RA OVC020
     FM251500 36005KT 4SM -RA BR SCT005 OVC012
     FM251900 04007KT 3SM RA BR OVC007
     FM260400 34011KT 4SM -RA BR OVC005
     FM261000 31014G22KT 6SM -RA OVC010=



000
FTUS42 KJAX 251000 AAC
TAFCRG
TAF AMD
KCRG 251010Z 2510/2606 VRB04KT P6SM OVC005
     FM251500 31005KT 3SM -RA BR SCT005 OVC015
     FM251800 36008KT 4SM -RA BR SCT003 OVC010
     FM260000 02005KT 2SM RA BR OVC007=



000
FTUS42 KJAX 250900 AAB
TAFGNV
TAF AMD
KGNV 250937Z 2510/2606 VRB03KT P6SM OVC005
     FM251200 23004KT 5SM -RA BR SCT008 OVC022
     FM251500 31005KT 3SM -RA BR SCT005 OVC015
     FM251900 36008KT 4SM -RA BR SCT003 OVC010
     FM260000 02005KT 2SM RA BR OVC007=



000
FTUS42 KJAX 250800 AAC
TAFSSI
TAF AMD
KSSI 250839Z 2509/2606 VRB04KT P6SM VCSH OVC012
     FM251200 23004KT 5SM -RA BR SCT008 OVC022
     FM251500 31005KT 3SM -RA BR SCT005 OVC015
     FM251800 36008KT 4SM -RA BR SCT003 OVC010
     FM252300 02005KT 2SM RA BR OVC007=



000
FTUS42 KJAX 250800 AAB
TAFCRG
TAF AMD
KCRG 250838Z 2509/2606 VRB04KT P6SM OVC008
     FM251500 31005KT 3SM -RA BR SCT005 OVC015
     FM251800 36008KT 4SM -RA BR SCT003 OVC010
     FM260000 02005KT 2SM RA BR OVC007=



000
FTUS42 KJAX 250700 AAB
TAFSSI
TAF AMD
KSSI 250752Z 2508/2606 VRB04KT P6SM VCSH SCT020 OVC035
      TEMPO 2508/2512 BKN020
     FM251200 23004KT 5SM -RA BR SCT008 OVC022
     FM251500 31005KT 3SM -RA BR SCT005 OVC015
     FM251800 36008KT 4SM -RA BR SCT003 OVC010
     FM252300 02005KT 2SM RA BR OVC007=



000
FTUS42 KJAX 250700 AAA
TAFCRG
TAF AMD
KCRG 250751Z 2508/2606 20004KT P6SM BKN012
      TEMPO 2508/2510 SCT012 BKN035
     FM251500 31005KT 3SM -RA BR SCT005 OVC015
     FM251800 36008KT 4SM -RA BR SCT003 OVC010
     FM260000 02005KT 2SM RA BR OVC007=



000
FTUS42 KJAX 250700 AAA
TAFSSI
TAF AMD
KSSI 250706Z 2507/2606 VRB04KT P6SM VCSH SCT020 OVC035
     FM251200 23004KT 5SM -RA BR SCT008 OVC022
     FM251500 31005KT 3SM -RA BR SCT005 OVC015
     FM251800 36008KT 4SM -RA BR SCT003 OVC010
     FM252300 02005KT 2SM RA BR OVC007=



000
FTUS42 KJAX 250700 AAA
TAFJAX
TAF AMD
KJAX 250705Z 2507/2606 VRB04KT P6SM OVC012
     FM251200 23004KT 5SM -RA BR SCT008 OVC022
     FM251500 31005KT 3SM -RA BR SCT005 OVC015
     FM251800 36008KT 4SM -RA BR SCT003 OVC010
     FM260000 02005KT 2SM RA BR OVC007=



000
FTUS42 KJAX 250600 AAA
TAFGNV
TAF AMD
KGNV 250653Z 2507/2606 VRB03KT P6SM VCSH OVC004
      TEMPO 2508/2512 SCT004 OVC020
     FM251200 23004KT 5SM -RA BR SCT008 OVC022
     FM251500 31005KT 3SM -RA BR SCT005 OVC015
     FM251900 36008KT 4SM -RA BR SCT003 OVC010
     FM260000 02005KT 2SM RA BR OVC007=



000
FTUS42 KJAX 250500
TAFSSI
TAF
KSSI 250524Z 2506/2606 VRB04KT P6SM VCSH SCT020 OVC035
     FM250900 23004KT 5SM -RA BR SCT008 OVC022
     FM251200 31005KT 3SM -RA BR SCT005 OVC015
     FM251500 36008KT 4SM -RA BR SCT003 OVC010
     FM252300 02005KT 2SM RA BR OVC007=



000
FTUS42 KJAX 250500
TAFCRG
TAF
KCRG 250524Z 2506/2606 20004KT P6SM SCT035 BKN100
     FM250800 VRB04KT P6SM VCSH SCT025 BKN050
      TEMPO 2509/2512 -SHRA OVC025
     FM251500 31005KT 3SM -RA BR SCT005 OVC015
     FM251800 36008KT 4SM -RA BR SCT003 OVC010
     FM260000 02005KT 2SM RA BR OVC007=



000
FTUS42 KJAX 250500
TAFJAX
TAF
KJAX 250524Z 2506/2606 VRB04KT P6SM VCSH SCT010 OVC035
      TEMPO 2507/2510 -SHRA BKN010
     FM251000 23004KT 5SM -RA BR SCT008 OVC022
     FM251300 31005KT 3SM -RA BR SCT005 OVC015
     FM251700 36008KT 4SM -RA BR SCT003 OVC010
     FM260000 02005KT 2SM RA BR OVC007=



000
FTUS42 KJAX 250500
TAFGNV
TAF
KGNV 250524Z 2506/2606 VRB03KT P6SM VCSH SCT008 BKN035
      TEMPO 2506/2509 OVC008
     FM251200 23004KT 5SM -RA BR SCT008 OVC022
     FM251500 31005KT 3SM -RA BR SCT005 OVC015
     FM251900 36008KT 4SM -RA BR SCT003 OVC010
     FM260000 02005KT 2SM RA BR OVC007=



000
FTUS42 KJAX 250500 CCA
TAFJAX
TAF COR
KJAX 250524Z 2506/2606 VRB04KT P6SM VCSH SCT010 OVC035
      TEMPO 2506/2510 -SHRA BKN010
     FM251000 23004KT 5SM -RA BR SCT008 OVC022
     FM251300 31005KT 3SM -RA BR SCT005 OVC015
     FM251700 36008KT 4SM -RA BR SCT003 OVC010
     FM260000 02005KT 2SM RA BR OVC007=



000
FTUS42 KJAX 250400 AAC
TAFSSI
TAF AMD
KSSI 250453Z 2505/2524 VRB04KT P6SM -SHRA VCTS SCT025CB BKN040
     FM250700 27004KT 5SM -RA BR SCT015 OVC025
     FM251200 35004KT 2SM -RADZ BR SCT005 BKN010
     FM251700 36008KT 4SM -RADZ BR SCT008 BKN010=



000
FTUS42 KJAX 250400 AAC
TAFGNV
TAF AMD
KGNV 250451Z 2505/2524 21005KT P6SM VCSH SCT025 BKN050
     FM251100 27004KT 5SM -RA BR SCT008 BKN010 OVC025
     FM251400 35004KT 2SM -RADZ BR SCT005 BKN010
     FM251900 36008KT 4SM -RADZ BR SCT008 BKN010=



000
FTUS42 KJAX 250400 AAD
TAFCRG
TAF AMD
KCRG 250449Z 2505/2524 21004KT P6SM SCT050 BKN200
     FM250700 VRB04KT P6SM VCSH SCT025 BKN050
     FM251400 35004KT 3SM -RADZ BR SCT005 BKN020
     FM251700 36008KT 4SM -RADZ BR SCT008 BKN020=



000
FTUS42 KJAX 250400 AAB
TAFJAX
TAF AMD
KJAX 250448Z 2505/2524 VRB04KT P6SM VCSH SCT025 BKN040
      TEMPO 2507/2510 BKN025
     FM251000 27004KT 5SM -RA BR SCT008 BKN025 OVC060
     FM251300 35004KT 3SM -RADZ BR SCT005 BKN020
     FM251700 36008KT 4SM -RADZ BR SCT008 BKN020=



000
FTUS42 KJAX 250300 AAC
TAFCRG
TAF AMD
KCRG 250326Z 2503/2524 20006KT P6SM SCT045 BKN120 OVC200
      TEMPO 2504/2508 VRB10G25KT 2SM TSRA BKN015CB
     FM250800 27004KT 5SM -RA BR SCT008 BKN025 OVC060
     FM251200 35004KT 3SM -RADZ BR SCT005 BKN020
     FM251700 36008KT 4SM -RADZ BR SCT008 BKN020=



000
FTUS42 KJAX 250300 AAA
TAFJAX
TAF AMD
KJAX 250324Z 2503/2524 23006KT P6SM SCT045 BKN120 OVC200
      TEMPO 2504/2508 VRB10G25KT 3SM TSRA BKN015CB
     FM250800 27004KT 5SM -RA BR SCT008 BKN025 OVC060
     FM251200 35004KT 3SM -RADZ BR SCT005 BKN020
     FM251700 36008KT 4SM -RADZ BR SCT008 BKN020=



000
FTUS42 KJAX 250200 AAB
TAFGNV
TAF AMD
KGNV 250254Z 2503/2524 20006KT P6SM SCT045 SCT120 BKN250
      TEMPO 2504/2508 VRB10G25KT 2SM TSRA BKN010CB
     FM250800 27004KT 4SM -RA BR SCT008 BKN010 OVC025
     FM251300 35004KT 2SM -RADZ BR SCT005 BKN010
     FM251900 36008KT 4SM -RADZ BR SCT008 BKN010=



000
FTUS42 KJAX 250200 AAB
TAFCRG
TAF AMD
KCRG 250253Z 2503/2524 20006KT P6SM SCT045 SCT120 BKN250
      TEMPO 2504/2508 VRB10G25KT 2SM TSRA BKN010CB
     FM250800 27004KT 4SM -RA BR SCT008 BKN010 OVC025
     FM251200 35004KT 2SM -RADZ BR SCT005 BKN010
     FM251700 36008KT 4SM -RADZ BR SCT008 BKN010=



000
FTUS42 KJAX 250200 AAA
TAFCRG
TAF AMD
KCRG 250252Z 2503/2524 20006KT P6SM SCT045 BKN120 BKN250
      TEMPO 2504/2508 VRB10G25KT 2SM TSRA BKN010CB
     FM250800 27004KT 4SM -RA BR SCT008 BKN010 OVC025
     FM251200 35004KT 2SM -RADZ BR SCT005 BKN010
     FM251700 36008KT 4SM -RADZ BR SCT008 BKN010=



000
FTUS42 KJAX 250200 AAB
TAFSSI
TAF AMD
KSSI 250248Z 2503/2524 VRB04KT P6SM -SHRA VCTS SCT025CB SCT040
      OVC100
      TEMPO 2503/2507 VRB10G25KT 2SM TSRA BKN010CB
     FM250700 27004KT 4SM -RA BR SCT008 BKN010 OVC025
     FM251200 35004KT 2SM -RADZ BR SCT005 BKN010
     FM251700 36008KT 4SM -RADZ BR SCT008 BKN010=



000
FTUS42 KJAX 250000 AAA
TAFSSI
TAF AMD
KSSI 250048Z 2501/2524 27006KT P6SM -SHRA SCT020 SCT025 OVC030
      TEMPO 2501/2503 VRB10G25KT 2SM TSRA BKN015CB
     FM250300 25004KT 5SM -RADZ BR OVC015
     FM250600 27004KT 2SM -RADZ BR OVC005
     FM251200 35004KT 2SM -RADZ BR OVC005
     FM251700 36008KT 4SM -RADZ BR SCT008 BKN010=



000
FTUS42 KJAX 242300 RRA
TAFCRG
TAF
KCRG 242341Z 2500/2524 20006KT P6SM VCSH SCT045 SCT120 BKN250
     FM250400 20004KT 5SM -RADZ BR SCT010 BKN040
     FM250700 23004KT 2SM -RADZ BR OVC005
     FM251200 29004KT 2SM -RADZ BR OVC005
     FM251700 33006KT 4SM -RADZ BR SCT008 BKN010=



000
FTUS42 KJAX 242300 RRA
TAFSSI
TAF
KSSI 242341Z 2500/2524 27006KT P6SM -SHRA SCT020 BKN025 OVC030
      TEMPO 2501/2503 VRB10G25KT 2SM TSRA BKN015CB
     FM250300 25004KT 5SM -RADZ BR OVC015
     FM250600 27004KT 2SM -RADZ BR OVC005
     FM251200 35004KT 2SM -RADZ BR OVC005
     FM251700 36008KT 4SM -RADZ BR SCT008 BKN010=



000
FTUS42 KJAX 242300 RRA
TAFJAX
TAF
KJAX 242341Z 2500/2524 20006KT P6SM VCSH SCT045 SCT120 BKN250
     FM250400 20004KT 5SM -RADZ BR SCT010 BKN040
     FM250700 23004KT 2SM -RADZ BR OVC005
     FM251200 29004KT 2SM -RADZ BR OVC005
     FM251700 33006KT 4SM -RADZ BR SCT008 BKN010=



000
FTUS42 KJAX 242300 RRA
TAFGNV
TAF
KGNV 242341Z 2500/2524 22006KT P6SM -SHRA OVC025
     FM250400 21004KT 5SM -RADZ BR OVC015
     FM250700 24004KT 2SM -RADZ BR OVC005
     FM251200 32004KT 2SM -RADZ BR OVC005
     FM251700 33006KT 4SM -RADZ BR SCT008 BKN010=



000
FTUS42 KJAX 242100 AAB
TAFGNV
TAF AMD
KGNV 242147Z 2422/2518 21012G20KT P6SM FEW030
     FM250000 21006KT P6SM -SHRA OVC025
     FM250300 21004KT 5SM -RADZ BR OVC015
     FM250600 24004KT 2SM -RADZ BR OVC005
     FM251200 32004KT 2SM -RADZ BR OVC005=



000
FTUS42 KJAX 242100 AAB
TAFGNV
TAF AMD
KGNV 242147Z 2422/2518 21012G20KT P6SM FEW030
     FM250000 21006KT P6SM -SHRA OVC025
     FM250300 21004KT 5SM -RADZ BR OVC015
     FM250600 24004KT 2SM -RADZ BR OVC005
     FM251200 32004KT 2SM -RADZ BR OVC005=



000
FTUS42 KJAX 242100 AAB
TAFCRG
TAF AMD
KCRG 242144Z 2422/2518 21012G18KT P6SM FEW040 SCT250
     FM250000 21006KT P6SM -SHRA OVC025
     FM250300 21004KT 5SM -RADZ BR OVC015
     FM250600 24004KT 2SM -RADZ BR OVC005
     FM251200 32004KT 2SM -RADZ BR OVC005=



000
FTUS42 KJAX 242100 AAB
TAFCRG
TAF AMD
KCRG 242144Z 2422/2518 21012G18KT P6SM FEW040 SCT250
     FM250000 21006KT P6SM -SHRA OVC025
     FM250300 21004KT 5SM -RADZ BR OVC015
     FM250600 24004KT 2SM -RADZ BR OVC005
     FM251200 32004KT 2SM -RADZ BR OVC005=



000
FTUS42 KJAX 242100 AAB
TAFJAX
TAF AMD
KJAX 242144Z 2422/2518 23015G20KT P6SM SCT030 BKN250
     FM250000 21006KT P6SM -SHRA OVC025
     FM250300 21004KT 5SM -RADZ BR OVC015
     FM250600 24004KT 2SM -RADZ BR OVC005
     FM251200 32004KT 2SM -RADZ BR OVC005=



000
FTUS42 KJAX 242100 AAB
TAFJAX
TAF AMD
KJAX 242144Z 2422/2518 23015G20KT P6SM SCT030 BKN250
     FM250000 21006KT P6SM -SHRA OVC025
     FM250300 21004KT 5SM -RADZ BR OVC015
     FM250600 24004KT 2SM -RADZ BR OVC005
     FM251200 32004KT 2SM -RADZ BR OVC005=



000
FTUS42 KJAX 242000 AAB
TAFSSI
TAF AMD
KSSI 242001Z 2420/2518 23007KT P6SM BKN035
     FM250000 21006KT P6SM -SHRA OVC025
     FM250300 21004KT 5SM -RADZ BR OVC015
     FM250600 24004KT 2SM -RADZ BR OVC005
     FM251200 32004KT 2SM -RADZ BR OVC005=



000
FTUS42 KJAX 241900 AAA
TAFGNV
TAF AMD
KGNV 241906Z 2419/2518 21012G20KT P6SM SCT030 BKN060
     FM242100 21010G16KT P6SM VCSH BKN025
     FM250000 21006KT P6SM -SHRA OVC025
     FM250300 21004KT 5SM -RADZ BR OVC015
     FM250600 24004KT 2SM -RADZ BR OVC005
     FM251200 32004KT 2SM -RADZ BR OVC005=



000
FTUS42 KJAX 241900 AAA
TAFSSI
TAF AMD
KSSI 241905Z 2419/2518 21010KT P6SM BKN025
     FM242000 21010G16KT P6SM VCSH BKN025
     FM250000 21006KT P6SM -SHRA OVC025
     FM250300 21004KT 5SM -RADZ BR OVC015
     FM250600 24004KT 2SM -RADZ BR OVC005
     FM251200 32004KT 2SM -RADZ BR OVC005=



000
FTUS42 KJAX 241900 AAA
TAFJAX
TAF AMD
KJAX 241904Z 2419/2518 21012G20KT P6SM SCT030 BKN050
     FM242100 21010G16KT P6SM VCSH BKN025
     FM250000 21006KT P6SM -SHRA OVC025
     FM250300 21004KT 5SM -RADZ BR OVC015
     FM250600 24004KT 2SM -RADZ BR OVC005
     FM251200 32004KT 2SM -RADZ BR OVC005=



000
FTUS42 KJAX 241900 AAA
TAFCRG
TAF AMD
KCRG 241904Z 2419/2518 21015G25KT P6SM FEW035
     FM242100 21010G16KT P6SM VCSH BKN025
     FM250000 21006KT P6SM -SHRA OVC025
     FM250300 21004KT 5SM -RADZ BR OVC015
     FM250600 24004KT 2SM -RADZ BR OVC005
     FM251200 32004KT 2SM -RADZ BR OVC005=



000
FTUS42 KJAX 241700
TAFJAX
TAF
KJAX 241720Z 2418/2518 21012G20KT P6SM BKN025
     FM242100 21010G16KT P6SM VCSH BKN025
     FM250000 21006KT P6SM -SHRA OVC025
     FM250300 21004KT 5SM -RADZ BR OVC015
     FM250600 24004KT 2SM -RADZ BR OVC005
     FM251200 32004KT 2SM -RADZ BR OVC005=



000
FTUS42 KJAX 241700
TAFSSI
TAF
KSSI 241720Z 2418/2518 21012G20KT P6SM BKN025
     FM242000 21010G16KT P6SM VCSH BKN025
     FM250000 21006KT P6SM -SHRA OVC025
     FM250300 21004KT 5SM -RADZ BR OVC015
     FM250600 24004KT 2SM -RADZ BR OVC005
     FM251200 32004KT 2SM -RADZ BR OVC005=



000
FTUS42 KJAX 241700
TAFGNV
TAF
KGNV 241720Z 2418/2518 21012G20KT P6SM BKN025
     FM242100 21010G16KT P6SM VCSH BKN025
     FM250000 21006KT P6SM -SHRA OVC025
     FM250300 21004KT 5SM -RADZ BR OVC015
     FM250600 24004KT 2SM -RADZ BR OVC005
     FM251200 32004KT 2SM -RADZ BR OVC005=



000
FTUS42 KJAX 241700
TAFCRG
TAF
KCRG 241720Z 2418/2518 21012G20KT P6SM BKN025
     FM242100 21010G16KT P6SM VCSH BKN025
     FM250000 21006KT P6SM -SHRA OVC025
     FM250300 21004KT 5SM -RADZ BR OVC015
     FM250600 24004KT 2SM -RADZ BR OVC005
     FM251200 32004KT 2SM -RADZ BR OVC005=



000
FTUS42 KJAX 241500 AAA
TAFCRG
TAF AMD
KCRG 241552Z 2416/2512 21012G18KT P6SM BKN025
     FM241900 21012G18KT P6SM VCSH BKN035
     FM242300 22007KT P6SM VCSH BKN025=



000
FTUS42 KJAX 241500 AAB
TAFJAX
TAF AMD
KJAX 241551Z 2416/2512 21012KT P6SM BKN025
     FM241900 21012G20KT P6SM VCSH BKN035
     FM242300 23007KT P6SM VCSH BKN025=



000
FTUS42 KJAX 241500 AAA
TAFSSI
TAF AMD
KSSI 241539Z 2416/2512 20010KT P6SM BKN015
     FM241900 21010G18KT P6SM VCSH BKN025
     FM242300 23007KT P6SM VCSH BKN020=



000
FTUS42 KJAX 241500 AAA
TAFGNV
TAF AMD
KGNV 241524Z 2415/2512 20010KT P6SM BKN015 BKN025
     FM241700 20012G18KT P6SM BKN025
     FM241900 21012G18KT P6SM VCSH BKN035=



000
FTUS42 KJAX 241400 AAA
TAFJAX
TAF AMD
KJAX 241421Z 2414/2512 21012KT P6SM BKN015
     FM241700 21012G20KT P6SM VCSH BKN035
     FM242300 23007KT P6SM VCSH BKN025=



000
FTUS42 KJAX 241100
TAFGNV
TAF
KGNV 241120Z 2412/2512 19008KT P6SM SCT015 BKN025 WS015/22035KT
      TEMPO 2412/2414 OVC015
     FM241500 21012KT P6SM VCSH BKN035
     FM241800 21011KT P6SM VCSH BKN025=



000
FTUS42 KJAX 241100
TAFSSI
TAF
KSSI 241120Z 2412/2512 19005KT P6SM SCT012 BKN080 WS015/22035KT
      TEMPO 2412/2414 BKN012
     FM241500 21010G18KT P6SM VCSH BKN025
     FM242300 23007KT P6SM VCSH BKN020=



000
FTUS42 KJAX 241100
TAFCRG
TAF
KCRG 241120Z 2412/2512 19005KT P6SM SCT012 BKN080 WS015/22035KT
      TEMPO 2412/2414 OVC012
     FM241500 21012G20KT P6SM VCSH BKN020
     FM242300 22007KT P6SM VCSH BKN025=



000
FTUS42 KJAX 241100
TAFJAX
TAF
KJAX 241120Z 2412/2512 20008KT P6SM SCT015 BKN080 WS015/22035KT
      TEMPO 2412/2414 BKN015
     FM241500 21012G20KT P6SM VCSH BKN035
     FM242300 23007KT P6SM VCSH BKN025=



000
FTUS42 KJAX 241000 AAC
TAFSSI
TAF AMD
KSSI 241013Z 2410/2506 19005KT P6SM SCT012 BKN080 WS015/22035KT
      TEMPO 2410/2413 BKN012
     FM241500 21010G18KT P6SM VCSH BKN025
     FM242300 22007KT P6SM VCSH BKN025=



000
FTUS42 KJAX 241000 AAC
TAFSSI
TAF AMD
KSSI 241013Z 2410/2506 19005KT P6SM SCT012 BKN080 WS015/22035KT
      TEMPO 2410/2413 BKN012
     FM241500 21010G18KT P6SM VCSH BKN025
     FM242300 22007KT P6SM VCSH BKN025=



000
FTUS42 KJAX 241000 AAC
TAFJAX
TAF AMD
KJAX 241012Z 2410/2506 20008KT P6SM BKN015 WS015/22035KT
      TEMPO 2410/2413 SCT015 BKN080
     FM241500 21012G20KT P6SM VCSH BKN035
     FM242300 23007KT P6SM VCSH BKN025=



000
FTUS42 KJAX 241000 AAC
TAFJAX
TAF AMD
KJAX 241012Z 2410/2506 20008KT P6SM BKN015 WS015/22035KT
      TEMPO 2410/2413 SCT015 BKN080
     FM241500 21012G20KT P6SM VCSH BKN035
     FM242300 23007KT P6SM VCSH BKN025=



    US Dept of Commerce
    National Oceanic and Atmospheric Administration
    National Weather Service
    1325 East West Highway
    Silver Spring, MD 20910
    Page Author: NWS Internet Services Team
Disclaimer
Information Quality
Credits
Glossary
Privacy Policy
Freedom of Information Act (FOIA)
About Us
Career Opportunities